createdAt,value
2022-11-08T00:00:13.965Z,5.10
2022-11-08T00:02:40.923Z,6.00
2022-11-08T00:05:26.185Z,5.83
2022-11-08T00:08:22.326Z,5.30
2022-11-08T00:11:15.778Z,5.60
2022-11-08T00:13:58.368Z,5.67
2022-11-08T00:16:25.728Z,5.40
2022-11-08T00:18:52.374Z,5.23
2022-11-08T00:21:19.059Z,5.30
2022-11-08T00:23:46.923Z,4.90
2022-11-08T00:26:13.600Z,4.07
2022-11-08T00:28:40.299Z,4.53
2022-11-08T00:31:07.435Z,4.13
2022-11-08T00:33:34.168Z,4.43
2022-11-08T00:36:02.033Z,4.50
2022-11-08T00:38:28.690Z,3.87
2022-11-08T00:40:55.467Z,4.37
2022-11-08T00:43:22.386Z,4.10
2022-11-08T00:45:49.055Z,4.57
2022-11-08T00:48:16.049Z,4.40
2022-11-08T00:50:42.912Z,4.13
2022-11-08T00:53:09.560Z,4.57
2022-11-08T00:55:36.238Z,4.03
2022-11-08T00:58:04.055Z,4.10
2022-11-08T01:00:31.288Z,3.70
2022-11-08T01:03:16.816Z,4.30
2022-11-08T01:05:43.486Z,3.70
2022-11-08T01:08:11.690Z,3.90
2022-11-08T01:10:42.575Z,3.60
2022-11-08T01:13:09.627Z,4.40
2022-11-08T01:15:38.242Z,3.87
2022-11-08T01:18:05.144Z,4.20
2022-11-08T01:20:32.096Z,4.30
2022-11-08T01:23:01.601Z,4.20
2022-11-08T01:25:28.226Z,4.13
2022-11-08T01:27:54.885Z,4.50
2022-11-08T01:30:24.657Z,3.77
2022-11-08T01:32:51.296Z,4.27
2022-11-08T01:35:18.004Z,3.70
2022-11-08T01:37:44.647Z,3.60
2022-11-08T01:40:11.570Z,3.40
2022-11-08T01:42:38.212Z,3.80
2022-11-08T01:45:07.892Z,3.50
2022-11-08T01:47:37.249Z,3.33
2022-11-08T01:50:18.704Z,3.57
2022-11-08T01:52:52.464Z,3.93
2022-11-08T01:55:25.931Z,3.60
2022-11-08T01:58:24.586Z,3.60
2022-11-08T02:00:52.350Z,3.60
2022-11-08T02:03:20.817Z,3.70
2022-11-08T02:05:50.624Z,3.47
2022-11-08T02:08:44.143Z,3.43
2022-11-08T02:11:17.300Z,3.50
2022-11-08T02:13:44.184Z,3.57
2022-11-08T02:16:13.968Z,3.30
2022-11-08T02:18:42.684Z,3.47
2022-11-08T02:21:37.003Z,3.57
2022-11-08T02:24:09.453Z,3.40
2022-11-08T02:26:37.450Z,3.20
2022-11-08T02:29:42.561Z,3.13
2022-11-08T02:32:11.173Z,3.47
2022-11-08T02:34:48.147Z,3.53
2022-11-08T02:37:18.458Z,3.17
2022-11-08T02:39:46.239Z,3.40
2022-11-08T02:42:18.575Z,2.97
2022-11-08T02:44:46.232Z,3.17
2022-11-08T02:47:14.917Z,2.73
2022-11-08T02:49:43.071Z,3.00
2022-11-08T02:52:10.058Z,3.13
2022-11-08T02:54:36.796Z,2.80
2022-11-08T02:57:03.605Z,2.73
2022-11-08T02:59:30.265Z,3.10
2022-11-08T03:01:57.015Z,3.10
2022-11-08T03:04:23.893Z,3.17
2022-11-08T03:06:50.540Z,2.63
2022-11-08T03:09:17.314Z,2.63
2022-11-08T03:11:43.970Z,2.80
2022-11-08T03:14:10.686Z,2.83
2022-11-08T03:16:37.378Z,2.73
2022-11-08T03:19:04.024Z,3.30
2022-11-08T03:21:30.729Z,2.90
2022-11-08T03:23:57.455Z,2.63
2022-11-08T03:26:24.193Z,2.70
2022-11-08T03:28:50.824Z,3.20
2022-11-08T03:31:17.501Z,3.03
2022-11-08T03:33:44.171Z,3.10
2022-11-08T03:36:10.849Z,3.13
2022-11-08T03:38:37.490Z,2.87
2022-11-08T03:41:04.239Z,3.37
2022-11-08T03:43:30.888Z,3.00
2022-11-08T03:45:57.546Z,2.80
2022-11-08T03:48:24.203Z,2.83
2022-11-08T03:50:51.873Z,2.63
2022-11-08T03:53:18.931Z,2.83
2022-11-08T03:55:45.633Z,3.00
2022-11-08T03:58:12.458Z,3.00
2022-11-08T04:00:39.367Z,2.90
2022-11-08T04:03:06.229Z,2.90
2022-11-08T04:05:32.961Z,2.80
2022-11-08T04:08:01.137Z,2.93
2022-11-08T04:10:28.005Z,2.77
2022-11-08T04:13:13.527Z,3.20
2022-11-08T04:15:40.432Z,3.37
2022-11-08T04:18:28.816Z,3.00
2022-11-08T04:21:17.660Z,2.63
2022-11-08T04:23:45.016Z,3.03
2022-11-08T04:26:11.925Z,3.17
2022-11-08T04:28:40.756Z,2.90
2022-11-08T04:31:11.043Z,3.30
2022-11-08T04:33:40.489Z,3.57
2022-11-08T04:36:10.591Z,3.23
2022-11-08T04:38:37.423Z,3.20
2022-11-08T04:41:12.295Z,3.30
2022-11-08T04:43:39.524Z,3.30
2022-11-08T04:46:11.619Z,3.27
2022-11-08T04:48:38.454Z,3.27
2022-11-08T04:51:14.118Z,3.33
2022-11-08T04:53:41.020Z,3.47
2022-11-08T04:56:14.112Z,3.83
2022-11-08T04:58:46.481Z,3.63
2022-11-08T05:01:16.576Z,3.43
2022-11-08T05:03:45.346Z,3.70
2022-11-08T05:06:16.306Z,3.57
2022-11-08T05:08:43.157Z,3.53
2022-11-08T05:11:21.095Z,3.47
2022-11-08T05:13:48.781Z,3.67
2022-11-08T05:16:29.250Z,3.90
2022-11-08T05:18:56.325Z,3.80
2022-11-08T05:21:42.419Z,4.00
2022-11-08T05:24:13.463Z,3.57
2022-11-08T05:26:44.446Z,3.47
2022-11-08T05:29:12.480Z,3.90
2022-11-08T05:31:39.416Z,4.00
2022-11-08T05:34:07.352Z,3.17
2022-11-08T05:36:34.149Z,3.73
2022-11-08T05:39:03.709Z,3.40
2022-11-08T05:41:30.380Z,3.50
2022-11-08T05:43:57.458Z,3.47
2022-11-08T05:46:24.431Z,3.73
2022-11-08T05:48:52.309Z,3.67
2022-11-08T05:51:20.236Z,4.00
2022-11-08T05:53:48.480Z,3.90
2022-11-08T05:56:15.223Z,3.90
2022-11-08T05:58:41.861Z,3.60
2022-11-08T06:01:17.754Z,3.83
2022-11-08T06:03:45.295Z,4.07
2022-11-08T06:06:14.638Z,4.07
2022-11-08T06:08:45.003Z,4.20
2022-11-08T06:11:17.352Z,3.97
2022-11-08T06:13:44.185Z,3.93
2022-11-08T06:16:13.519Z,4.13
2022-11-08T06:18:41.378Z,4.03
2022-11-08T06:21:13.054Z,3.77
2022-11-08T06:23:42.124Z,4.40
2022-11-08T06:26:09.256Z,3.90
2022-11-08T06:28:36.375Z,3.70
2022-11-08T06:31:05.044Z,4.10
2022-11-08T06:33:32.255Z,4.13
2022-11-08T06:35:59.216Z,3.87
2022-11-08T06:38:25.998Z,3.47
2022-11-08T06:40:52.738Z,4.40
2022-11-08T06:43:20.412Z,4.10
2022-11-08T06:45:47.707Z,3.90
2022-11-08T06:48:14.759Z,4.17
2022-11-08T06:50:43.239Z,4.47
2022-11-08T06:53:12.760Z,4.30
2022-11-08T06:55:40.088Z,4.03
2022-11-08T06:58:06.996Z,4.57
2022-11-08T07:00:33.778Z,4.43
2022-11-08T07:03:02.471Z,4.27
2022-11-08T07:05:32.499Z,4.60
2022-11-08T07:08:00.631Z,4.43
2022-11-08T07:10:30.177Z,4.53
2022-11-08T07:13:02.104Z,4.00
2022-11-08T07:15:30.027Z,4.70
2022-11-08T07:18:06.663Z,4.20
2022-11-08T07:20:33.575Z,4.00
2022-11-08T07:23:00.466Z,4.70
2022-11-08T07:25:28.769Z,4.40
2022-11-08T07:28:04.857Z,4.20
2022-11-08T07:30:32.589Z,3.93
2022-11-08T07:32:59.381Z,3.60
2022-11-08T07:35:27.731Z,4.93
2022-11-08T07:37:55.701Z,4.10
2022-11-08T07:40:22.851Z,4.10
2022-11-08T07:43:10.802Z,4.00
2022-11-08T07:45:36.365Z,4.00
2022-11-08T07:48:11.901Z,4.73
2022-11-08T07:50:40.188Z,3.77
2022-11-08T07:53:07.109Z,3.97
2022-11-08T07:55:36.381Z,4.10
2022-11-08T07:58:03.696Z,4.37
2022-11-08T08:00:31.435Z,4.03
2022-11-08T08:03:02.822Z,4.20
2022-11-08T08:05:33.273Z,4.00
2022-11-08T08:08:01.912Z,4.00
2022-11-08T08:10:29.130Z,3.87
2022-11-08T08:12:56.812Z,4.50
2022-11-08T08:15:24.027Z,4.00
2022-11-08T08:17:50.752Z,3.57
2022-11-08T08:20:17.736Z,3.90
2022-11-08T08:22:49.365Z,3.77
2022-11-08T08:25:16.831Z,3.90
2022-11-08T08:27:51.780Z,4.20
2022-11-08T08:30:19.537Z,3.83
2022-11-08T08:32:53.547Z,3.90
2022-11-08T08:35:29.562Z,3.83
2022-11-08T08:38:00.589Z,4.37
2022-11-08T08:40:27.742Z,3.60
2022-11-08T08:42:54.991Z,3.63
2022-11-08T08:45:21.695Z,3.50
2022-11-08T08:47:52.942Z,3.50
2022-11-08T08:50:20.259Z,3.70
2022-11-08T08:52:47.228Z,3.93
2022-11-08T08:55:16.490Z,3.50
2022-11-08T08:57:47.642Z,3.60
2022-11-08T09:03:07.811Z,3.23
2022-11-08T09:05:35.787Z,3.30
2022-11-08T09:08:03.582Z,3.53
2022-11-08T09:10:30.370Z,3.80
2022-11-08T09:12:57.051Z,3.20
2022-11-08T09:15:23.809Z,3.70
2022-11-08T09:17:54.963Z,4.10
2022-11-08T09:20:21.895Z,3.13
2022-11-08T09:22:48.940Z,3.70
2022-11-08T09:25:15.634Z,3.80
2022-11-08T09:27:42.291Z,3.57
2022-11-08T09:30:09.328Z,3.27
2022-11-08T09:32:59.244Z,3.33
2022-11-08T09:35:23.382Z,3.30
2022-11-08T09:37:52.342Z,3.30
2022-11-08T09:40:24.405Z,3.37
2022-11-08T09:43:06.888Z,3.40
2022-11-08T09:45:47.863Z,3.40
2022-11-08T09:48:28.164Z,2.90
2022-11-08T09:50:56.836Z,3.17
2022-11-08T09:53:36.656Z,3.23
2022-11-08T09:56:17.174Z,2.90
2022-11-08T09:58:54.732Z,3.17
2022-11-08T10:01:27.011Z,2.80
2022-11-08T10:03:57.699Z,3.00
2022-11-08T10:06:34.728Z,3.07
2022-11-08T10:09:13.174Z,2.47
2022-11-08T10:12:08.630Z,2.60
2022-11-08T10:14:54.783Z,2.30
2022-11-08T10:17:59.647Z,2.53
2022-11-08T10:20:47.529Z,2.40
2022-11-08T10:23:43.448Z,2.70
2022-11-08T10:26:16.234Z,2.60
2022-11-08T10:28:50.455Z,2.67
2022-11-08T10:31:19.891Z,2.10
2022-11-08T10:33:52.894Z,2.50
2022-11-08T10:36:38.383Z,2.57
2022-11-08T10:39:21.184Z,2.10
2022-11-08T10:41:59.987Z,2.63
2022-11-08T10:44:28.885Z,2.30
2022-11-08T10:47:03.088Z,2.67
2022-11-08T10:49:37.241Z,2.30
2022-11-08T10:52:12.778Z,2.50
2022-11-08T10:54:42.647Z,1.90
2022-11-08T10:57:11.343Z,2.30
2022-11-08T10:59:38.111Z,2.03
2022-11-08T11:02:18.946Z,2.13
2022-11-08T11:04:45.956Z,2.40
2022-11-08T11:07:57.586Z,2.10
2022-11-08T11:10:34.787Z,1.77
2022-11-08T11:13:20.765Z,1.90
2022-11-08T11:15:55.102Z,1.90
2022-11-08T11:18:24.699Z,2.30
2022-11-08T11:21:18.753Z,1.87
2022-11-08T11:23:54.671Z,2.00
2022-11-08T11:26:29.301Z,2.10
2022-11-08T11:29:04.797Z,1.87
2022-11-08T11:31:35.513Z,1.63
2022-11-08T11:34:33.250Z,1.70
2022-11-08T11:37:17.384Z,1.70
2022-11-08T11:40:02.558Z,2.00
2022-11-08T11:42:46.294Z,1.90
2022-11-08T11:45:16.754Z,1.80
2022-11-08T11:47:54.235Z,1.80
2022-11-08T11:50:24.074Z,1.63
2022-11-08T11:52:50.746Z,1.60
2022-11-08T11:55:18.009Z,1.60
2022-11-08T11:57:56.452Z,1.80
2022-11-08T12:00:23.563Z,1.50
2022-11-08T12:03:15.611Z,1.37
2022-11-08T12:06:06.099Z,1.60
2022-11-08T12:09:14.318Z,1.70
2022-11-08T12:12:03.725Z,1.60
2022-11-08T12:14:55.910Z,1.40
2022-11-08T12:17:25.740Z,1.43
2022-11-08T12:20:26.838Z,1.80
2022-11-08T12:23:00.104Z,1.80
2022-11-08T12:25:35.432Z,1.40
2022-11-08T12:28:25.146Z,1.60
2022-11-08T12:31:08.951Z,1.60
2022-11-08T12:33:55.217Z,1.73
2022-11-08T12:36:37.231Z,1.50
2022-11-08T12:39:35.694Z,1.50
2022-11-08T12:42:30.140Z,1.50
2022-11-08T12:45:20.871Z,1.80
2022-11-08T12:48:25.281Z,1.80
2022-11-08T12:51:05.701Z,1.60
2022-11-08T12:53:41.608Z,1.70
2022-11-08T12:56:27.451Z,1.50
2022-11-08T12:58:55.332Z,1.70
2022-11-08T13:01:23.348Z,1.70
2022-11-08T13:04:38.746Z,1.90
2022-11-08T13:07:22.254Z,1.80
2022-11-08T13:10:00.551Z,1.77
2022-11-08T13:12:56.792Z,1.90
2022-11-08T13:15:25.243Z,1.77
2022-11-08T13:18:23.089Z,1.83
2022-11-08T13:20:50.400Z,1.53
2022-11-08T13:23:30.982Z,1.80
2022-11-08T13:26:27.248Z,1.90
2022-11-08T13:28:54.004Z,1.70
2022-11-08T13:31:41.958Z,1.47
2022-11-08T13:34:36.983Z,1.70
2022-11-08T13:37:48.383Z,1.43
2022-11-08T13:40:32.447Z,1.90
2022-11-08T13:43:31.834Z,1.97
2022-11-08T13:46:20.090Z,1.80
2022-11-08T13:49:05.938Z,1.60
2022-11-08T13:51:39.714Z,1.63
2022-11-08T13:54:21.712Z,1.80
2022-11-08T13:56:51.989Z,1.80
2022-11-08T13:59:44.894Z,1.80
2022-11-08T14:02:23.423Z,1.57
2022-11-08T14:04:51.447Z,1.70
2022-11-08T14:07:37.299Z,1.83
2022-11-08T14:10:12.161Z,1.70
2022-11-08T14:13:10.525Z,1.90
2022-11-08T14:15:44.424Z,2.33
2022-11-08T14:18:29.640Z,1.83
2022-11-08T14:20:56.677Z,2.03
2022-11-08T14:23:30.965Z,1.70
2022-11-08T14:26:17.655Z,1.80
2022-11-08T14:28:46.286Z,1.90
2022-11-08T14:31:26.794Z,1.80
2022-11-08T14:33:55.005Z,1.77
2022-11-08T14:36:23.126Z,2.10
2022-11-08T14:39:09.811Z,1.70
2022-11-08T14:41:36.778Z,1.90
2022-11-08T14:44:04.838Z,1.80
2022-11-08T14:46:33.033Z,2.00
2022-11-08T14:49:09.092Z,2.10
2022-11-08T14:51:35.913Z,1.90
2022-11-08T14:54:02.580Z,1.93
2022-11-08T14:56:37.870Z,1.70
2022-11-08T14:59:06.830Z,1.90
2022-11-08T15:01:35.492Z,2.10
2022-11-08T15:04:06.469Z,2.10
2022-11-08T15:06:45.606Z,1.73
2022-11-08T15:09:24.387Z,2.10
2022-11-08T15:11:55.553Z,2.10
2022-11-08T15:14:25.422Z,1.80
2022-11-08T15:16:58.658Z,1.80
2022-11-08T15:19:34.077Z,1.90
2022-11-08T15:22:03.749Z,2.03
2022-11-08T15:24:40.697Z,2.13
2022-11-08T15:27:10.327Z,2.10
2022-11-08T15:29:53.489Z,2.23
2022-11-08T15:32:22.136Z,2.33
2022-11-08T15:34:52.804Z,2.20
2022-11-08T15:37:27.599Z,2.10
2022-11-08T15:39:55.368Z,2.20
2022-11-08T15:42:22.275Z,2.03
2022-11-08T15:45:24.054Z,2.27
2022-11-08T15:47:50.711Z,2.17
2022-11-08T15:50:17.414Z,2.30
2022-11-08T15:52:44.995Z,2.57
2022-11-08T15:55:36.638Z,2.23
2022-11-08T15:58:04.631Z,2.60
2022-11-08T16:00:36.239Z,2.50
2022-11-08T16:03:03.132Z,2.30
2022-11-08T16:05:32.066Z,2.23
2022-11-08T16:07:59.357Z,2.20
2022-11-08T16:10:37.080Z,2.37
2022-11-08T16:13:05.132Z,2.20
2022-11-08T16:15:34.181Z,2.40
2022-11-08T16:18:02.121Z,2.47
2022-11-08T16:20:35.562Z,2.47
2022-11-08T16:23:04.631Z,2.10
2022-11-08T16:25:35.489Z,2.40
2022-11-08T16:28:17.185Z,3.17
2022-11-08T16:30:46.814Z,2.63
2022-11-08T16:33:27.261Z,2.20
2022-11-08T16:35:55.826Z,2.70
2022-11-08T16:38:36.573Z,2.60
2022-11-08T16:41:04.810Z,3.00
2022-11-08T16:43:31.783Z,2.80
2022-11-08T16:46:05.970Z,2.90
2022-11-08T16:48:36.469Z,3.17
2022-11-08T16:51:06.188Z,4.10
2022-11-08T16:53:33.237Z,3.33
2022-11-08T16:56:00.142Z,3.63
2022-11-08T16:58:28.024Z,3.60
2022-11-08T17:00:55.798Z,3.47
2022-11-08T17:03:25.656Z,3.57
2022-11-08T17:05:53.952Z,3.73
2022-11-08T17:08:21.478Z,3.00
2022-11-08T17:10:48.598Z,3.50
2022-11-08T17:13:17.479Z,3.70
2022-11-08T17:15:44.633Z,3.40
2022-11-08T17:18:13.941Z,3.70
2022-11-08T17:20:41.057Z,3.40
2022-11-08T17:23:09.036Z,3.93
2022-11-08T17:25:37.637Z,3.63
2022-11-08T17:28:04.929Z,3.70
2022-11-08T17:30:31.896Z,4.10
2022-11-08T17:32:58.696Z,3.60
2022-11-08T17:35:25.899Z,3.97
2022-11-08T17:37:53.606Z,3.80
2022-11-08T17:40:20.556Z,3.50
2022-11-08T17:42:47.229Z,4.20
2022-11-08T17:45:17.125Z,4.03
2022-11-08T17:47:43.789Z,4.23
2022-11-08T17:50:10.837Z,3.43
2022-11-08T17:52:37.809Z,4.23
2022-11-08T17:55:05.211Z,4.40
2022-11-08T17:57:32.411Z,4.23
2022-11-08T17:59:59.460Z,4.10
2022-11-08T18:02:27.347Z,4.67
2022-11-08T18:04:54.691Z,4.43
2022-11-08T18:07:21.634Z,4.53
2022-11-08T18:09:48.444Z,4.30
2022-11-08T18:12:15.124Z,4.60
2022-11-08T18:14:41.800Z,4.13
2022-11-08T18:17:08.504Z,4.93
2022-11-08T18:19:35.722Z,4.97
2022-11-08T18:22:04.747Z,4.93
2022-11-08T18:24:31.605Z,4.73
2022-11-08T18:26:58.669Z,4.40
2022-11-08T18:29:25.426Z,4.40
2022-11-08T18:31:52.158Z,4.20
2022-11-08T18:34:18.896Z,4.90
2022-11-08T18:36:48.104Z,4.57
2022-11-08T18:39:18.411Z,4.30
2022-11-08T18:41:46.692Z,3.93
2022-11-08T18:44:13.396Z,3.60
2022-11-08T18:46:43.203Z,4.27
2022-11-08T18:49:10.732Z,4.07
2022-11-08T18:51:37.428Z,4.10
2022-11-08T18:54:04.194Z,3.90
2022-11-08T18:56:30.899Z,3.53
2022-11-08T18:58:57.911Z,4.43
2022-11-08T19:01:25.070Z,4.07
2022-11-08T19:03:51.806Z,4.17
2022-11-08T19:06:19.510Z,4.00
2022-11-08T19:08:46.352Z,3.87
2022-11-08T19:11:14.379Z,3.80
2022-11-08T19:13:41.207Z,3.87
2022-11-08T19:16:16.975Z,4.20
2022-11-08T19:18:45.018Z,3.90
2022-11-08T19:21:20.238Z,3.83
2022-11-08T19:23:47.565Z,3.70
2022-11-08T19:26:17.652Z,3.97
2022-11-08T19:28:45.893Z,3.77
2022-11-08T19:31:14.847Z,3.97
2022-11-08T19:33:41.667Z,3.67
2022-11-08T19:36:14.591Z,4.13
2022-11-08T19:38:42.113Z,4.17
2022-11-08T19:41:11.410Z,4.10
2022-11-08T19:43:39.237Z,4.07
2022-11-08T19:46:08.445Z,4.17
2022-11-08T19:48:38.362Z,4.50
2022-11-08T19:51:13.546Z,4.40
2022-11-08T19:53:41.114Z,3.83
2022-11-08T19:56:10.545Z,4.03
2022-11-08T19:58:38.398Z,3.97
2022-11-08T20:01:17.673Z,3.90
2022-11-08T20:03:45.216Z,4.47
2022-11-08T20:06:13.821Z,4.47
2022-11-08T20:08:40.602Z,4.20
2022-11-08T20:11:15.934Z,4.40
2022-11-08T20:13:44.233Z,4.40
2022-11-08T20:16:21.483Z,4.40
2022-11-08T20:18:48.281Z,4.17
2022-11-08T20:21:16.893Z,4.17
2022-11-08T20:23:44.425Z,4.30
2022-11-08T20:26:21.571Z,4.60
2022-11-08T20:28:56.039Z,4.23
2022-11-08T20:31:23.663Z,4.43
2022-11-08T20:33:53.115Z,4.40
2022-11-08T20:36:22.476Z,4.70
2022-11-08T20:38:50.227Z,4.37
2022-11-08T20:41:17.915Z,4.73
2022-11-08T20:43:46.771Z,4.17
2022-11-08T20:46:21.001Z,4.70
2022-11-08T20:48:51.935Z,4.70
2022-11-08T20:51:20.741Z,4.63
2022-11-08T20:53:48.516Z,4.50
2022-11-08T20:56:22.504Z,4.03
2022-11-08T20:58:50.556Z,4.03
2022-11-08T21:01:23.194Z,3.83
2022-11-08T21:03:51.139Z,3.93
2022-11-08T21:06:20.311Z,3.97
2022-11-08T21:09:10.232Z,4.00
2022-11-08T21:11:37.049Z,4.03
2022-11-08T21:14:04.347Z,3.90
2022-11-08T21:16:42.357Z,3.93
2022-11-08T21:19:13.990Z,3.63
2022-11-08T21:21:40.731Z,4.00
2022-11-08T21:24:07.801Z,4.03
2022-11-08T21:26:36.466Z,4.20
2022-11-08T21:29:04.377Z,4.60
2022-11-08T21:31:31.131Z,4.37
2022-11-08T21:33:58.282Z,4.37
2022-11-08T21:36:26.884Z,4.00
2022-11-08T21:38:54.193Z,4.20
2022-11-08T21:41:21.125Z,4.20
2022-11-08T21:43:47.874Z,4.43
2022-11-08T21:46:23.744Z,4.10
2022-11-08T21:48:58.121Z,3.93
2022-11-08T21:51:26.556Z,4.20
2022-11-08T21:53:55.562Z,4.30
2022-11-08T21:56:24.744Z,4.20
2022-11-08T21:58:51.707Z,3.93
2022-11-08T22:01:18.823Z,3.97
2022-11-08T22:03:46.659Z,4.30
2022-11-08T22:06:13.591Z,3.97
2022-11-08T22:08:40.239Z,4.37
2022-11-08T22:11:07.190Z,4.00
2022-11-08T22:13:33.986Z,4.20
2022-11-08T22:16:00.830Z,4.30
2022-11-08T22:18:43.485Z,4.07
2022-11-08T22:21:33.230Z,3.87
2022-11-08T22:23:59.913Z,4.00
2022-11-08T22:26:26.580Z,3.80
2022-11-08T22:28:53.267Z,3.83
2022-11-08T22:31:19.902Z,4.40
2022-11-08T22:33:46.680Z,4.37
2022-11-08T22:36:13.442Z,3.73
2022-11-08T22:38:40.357Z,4.00
2022-11-08T22:41:07.691Z,4.67
2022-11-08T22:43:35.725Z,3.40
2022-11-08T22:46:02.714Z,3.93
2022-11-08T22:48:29.405Z,4.40
2022-11-08T22:50:56.223Z,3.70
2022-11-08T22:53:23.019Z,3.90
2022-11-08T22:55:49.828Z,4.00
2022-11-08T22:58:16.547Z,3.53
2022-11-08T23:01:00.976Z,3.50
2022-11-08T23:03:27.709Z,3.87
2022-11-08T23:05:56.033Z,3.90
2022-11-08T23:08:25.381Z,3.97
2022-11-08T23:11:30.902Z,3.50
2022-11-08T23:14:16.410Z,3.40
2022-11-08T23:16:45.316Z,3.33
2022-11-08T23:19:35.250Z,3.70
2022-11-08T23:22:22.586Z,3.70
2022-11-08T23:24:49.327Z,3.60
2022-11-08T23:27:36.036Z,3.40
2022-11-08T23:30:22.402Z,3.50
2022-11-08T23:32:50.477Z,3.70
2022-11-08T23:35:19.095Z,3.20
2022-11-08T23:37:46.397Z,3.50
2022-11-08T23:40:33.805Z,3.90
2022-11-08T23:43:35.097Z,3.50
2022-11-08T23:46:10.086Z,3.10
2022-11-08T23:48:38.233Z,3.73
2022-11-08T23:51:06.157Z,3.73
2022-11-08T23:53:34.672Z,3.43
2022-11-08T23:56:01.460Z,3.20
2022-11-08T23:58:28.292Z,3.50
